sensor_id;sensor_type;location;lat;lon;timestamp;P1;durP1;ratioP1;P2;durP2;ratioP2
75035;SDS011;64247;51.540;5.854;2023-05-14T00:00:35;12.88;;;9.48;;
75035;SDS011;64247;51.540;5.854;2023-05-14T00:02:36;13.77;;;9.77;;
75035;SDS011;64247;51.540;5.854;2023-05-14T00:04:37;13.35;;;9.63;;
75035;SDS011;64247;51.540;5.854;2023-05-14T00:06:38;13.05;;;9.55;;
75035;SDS011;64247;51.540;5.854;2023-05-14T00:08:38;13.60;;;9.65;;
75035;SDS011;64247;51.540;5.854;2023-05-14T00:10:39;11.20;;;9.50;;
75035;SDS011;64247;51.540;5.854;2023-05-14T00:12:40;14.23;;;9.43;;
75035;SDS011;64247;51.540;5.854;2023-05-14T00:14:40;16.50;;;9.55;;
75035;SDS011;64247;51.540;5.854;2023-05-14T00:16:41;17.52;;;9.15;;
75035;SDS011;64247;51.540;5.854;2023-05-14T00:18:42;15.32;;;9.48;;
75035;SDS011;64247;51.540;5.854;2023-05-14T00:20:43;14.38;;;9.77;;
75035;SDS011;64247;51.540;5.854;2023-05-14T00:22:43;12.15;;;9.98;;
75035;SDS011;64247;51.540;5.854;2023-05-14T00:24:44;12.02;;;9.30;;
75035;SDS011;64247;51.540;5.854;2023-05-14T00:26:45;12.25;;;9.65;;
75035;SDS011;64247;51.540;5.854;2023-05-14T00:28:46;12.32;;;9.50;;
75035;SDS011;64247;51.540;5.854;2023-05-14T00:30:46;16.35;;;10.82;;
75035;SDS011;64247;51.540;5.854;2023-05-14T00:32:49;11.25;;;9.38;;
75035;SDS011;64247;51.540;5.854;2023-05-14T00:34:50;12.02;;;9.55;;
75035;SDS011;64247;51.540;5.854;2023-05-14T00:36:51;15.38;;;9.90;;
75035;SDS011;64247;51.540;5.854;2023-05-14T00:38:52;14.55;;;11.25;;
75035;SDS011;64247;51.540;5.854;2023-05-14T00:40:52;15.70;;;10.73;;
75035;SDS011;64247;51.540;5.854;2023-05-14T00:42:54;12.50;;;10.05;;
75035;SDS011;64247;51.540;5.854;2023-05-14T00:44:55;15.02;;;10.73;;
75035;SDS011;64247;51.540;5.854;2023-05-14T00:46:56;13.13;;;9.77;;
75035;SDS011;64247;51.540;5.854;2023-05-14T00:48:58;14.45;;;11.13;;
75035;SDS011;64247;51.540;5.854;2023-05-14T00:50:59;13.13;;;10.35;;
75035;SDS011;64247;51.540;5.854;2023-05-14T00:53:00;12.95;;;10.43;;
75035;SDS011;64247;51.540;5.854;2023-05-14T00:55:02;14.95;;;10.35;;
75035;SDS011;64247;51.540;5.854;2023-05-14T00:57:06;12.70;;;9.68;;
75035;SDS011;64247;51.540;5.854;2023-05-14T00:59:07;15.38;;;10.15;;
75035;SDS011;64247;51.540;5.854;2023-05-14T01:01:08;11.93;;;9.63;;
75035;SDS011;64247;51.540;5.854;2023-05-14T01:03:09;18.92;;;10.32;;
75035;SDS011;64247;51.540;5.854;2023-05-14T01:05:10;15.27;;;10.43;;
75035;SDS011;64247;51.540;5.854;2023-05-14T01:09:57;14.20;;;9.77;;
75035;SDS011;64247;51.540;5.854;2023-05-14T01:14:55;12.13;;;9.55;;
75035;SDS011;64247;51.540;5.854;2023-05-14T01:17:01;12.48;;;11.18;;
75035;SDS011;64247;51.540;5.854;2023-05-14T01:19:04;17.25;;;10.45;;
75035;SDS011;64247;51.540;5.854;2023-05-14T01:23:42;13.40;;;11.98;;
75035;SDS011;64247;51.540;5.854;2023-05-14T01:25:43;15.65;;;11.43;;
75035;SDS011;64247;51.540;5.854;2023-05-14T01:30:33;17.15;;;11.60;;
75035;SDS011;64247;51.540;5.854;2023-05-14T01:32:37;15.40;;;10.70;;
75035;SDS011;64247;51.540;5.854;2023-05-14T01:34:39;14.55;;;10.57;;
75035;SDS011;64247;51.540;5.854;2023-05-14T01:36:41;15.50;;;11.00;;
75035;SDS011;64247;51.540;5.854;2023-05-14T01:38:43;13.30;;;10.20;;
75035;SDS011;64247;51.540;5.854;2023-05-14T01:40:47;14.95;;;10.38;;
75035;SDS011;64247;51.540;5.854;2023-05-14T01:42:50;14.30;;;10.85;;
75035;SDS011;64247;51.540;5.854;2023-05-14T01:44:52;15.20;;;11.20;;
75035;SDS011;64247;51.540;5.854;2023-05-14T01:46:53;13.13;;;9.75;;
75035;SDS011;64247;51.540;5.854;2023-05-14T01:48:54;15.77;;;11.00;;
75035;SDS011;64247;51.540;5.854;2023-05-14T01:50:55;16.10;;;12.10;;
75035;SDS011;64247;51.540;5.854;2023-05-14T01:52:55;16.77;;;11.60;;
75035;SDS011;64247;51.540;5.854;2023-05-14T01:54:56;17.52;;;11.63;;
75035;SDS011;64247;51.540;5.854;2023-05-14T01:56:57;14.88;;;11.00;;
75035;SDS011;64247;51.540;5.854;2023-05-14T01:58:58;15.80;;;11.35;;
75035;SDS011;64247;51.540;5.854;2023-05-14T02:00:59;14.65;;;11.68;;
75035;SDS011;64247;51.540;5.854;2023-05-14T02:03:00;16.60;;;11.52;;
75035;SDS011;64247;51.540;5.854;2023-05-14T02:05:00;16.73;;;12.23;;
75035;SDS011;64247;51.540;5.854;2023-05-14T02:07:01;17.85;;;12.73;;
75035;SDS011;64247;51.540;5.854;2023-05-14T02:09:02;16.13;;;11.93;;
75035;SDS011;64247;51.540;5.854;2023-05-14T02:11:04;20.67;;;12.30;;
75035;SDS011;64247;51.540;5.854;2023-05-14T02:13:05;17.95;;;11.85;;
75035;SDS011;64247;51.540;5.854;2023-05-14T02:15:06;17.35;;;11.60;;
75035;SDS011;64247;51.540;5.854;2023-05-14T02:17:09;16.00;;;12.07;;
75035;SDS011;64247;51.540;5.854;2023-05-14T02:19:10;19.67;;;12.50;;
75035;SDS011;64247;51.540;5.854;2023-05-14T02:21:10;16.10;;;12.23;;
75035;SDS011;64247;51.540;5.854;2023-05-14T02:23:11;20.17;;;12.90;;
75035;SDS011;64247;51.540;5.854;2023-05-14T02:25:12;17.83;;;12.48;;
75035;SDS011;64247;51.540;5.854;2023-05-14T02:27:13;19.88;;;13.02;;
75035;SDS011;64247;51.540;5.854;2023-05-14T02:29:14;17.13;;;12.40;;
75035;SDS011;64247;51.540;5.854;2023-05-14T02:31:15;18.55;;;13.85;;
75035;SDS011;64247;51.540;5.854;2023-05-14T02:33:18;19.67;;;13.52;;
75035;SDS011;64247;51.540;5.854;2023-05-14T02:35:19;19.58;;;13.45;;
75035;SDS011;64247;51.540;5.854;2023-05-14T02:37:19;19.38;;;13.40;;
75035;SDS011;64247;51.540;5.854;2023-05-14T02:39:20;20.27;;;13.00;;
75035;SDS011;64247;51.540;5.854;2023-05-14T02:41:21;19.83;;;12.88;;
75035;SDS011;64247;51.540;5.854;2023-05-14T02:43:22;20.13;;;13.27;;
75035;SDS011;64247;51.540;5.854;2023-05-14T02:45:22;20.42;;;14.82;;
75035;SDS011;64247;51.540;5.854;2023-05-14T02:47:23;21.30;;;13.55;;
75035;SDS011;64247;51.540;5.854;2023-05-14T02:49:24;17.75;;;13.02;;
75035;SDS011;64247;51.540;5.854;2023-05-14T02:51:25;20.15;;;13.20;;
75035;SDS011;64247;51.540;5.854;2023-05-14T02:53:26;24.70;;;14.75;;
75035;SDS011;64247;51.540;5.854;2023-05-14T02:55:27;22.15;;;14.43;;
75035;SDS011;64247;51.540;5.854;2023-05-14T02:57:28;25.25;;;14.43;;
75035;SDS011;64247;51.540;5.854;2023-05-14T02:59:28;21.05;;;15.07;;
75035;SDS011;64247;51.540;5.854;2023-05-14T03:01:30;21.17;;;14.95;;
75035;SDS011;64247;51.540;5.854;2023-05-14T03:03:31;26.08;;;15.20;;
75035;SDS011;64247;51.540;5.854;2023-05-14T03:05:32;22.63;;;14.45;;
75035;SDS011;64247;51.540;5.854;2023-05-14T03:07:32;23.67;;;15.45;;
75035;SDS011;64247;51.540;5.854;2023-05-14T03:09:33;24.77;;;16.13;;
75035;SDS011;64247;51.540;5.854;2023-05-14T03:11:34;20.58;;;14.45;;
75035;SDS011;64247;51.540;5.854;2023-05-14T03:13:35;22.33;;;14.40;;
75035;SDS011;64247;51.540;5.854;2023-05-14T03:15:36;23.33;;;14.65;;
75035;SDS011;64247;51.540;5.854;2023-05-14T03:17:36;23.33;;;15.10;;
75035;SDS011;64247;51.540;5.854;2023-05-14T03:19:37;26.00;;;15.95;;
75035;SDS011;64247;51.540;5.854;2023-05-14T03:21:38;25.17;;;16.65;;
75035;SDS011;64247;51.540;5.854;2023-05-14T03:23:39;22.30;;;15.43;;
75035;SDS011;64247;51.540;5.854;2023-05-14T03:25:40;24.00;;;16.33;;
75035;SDS011;64247;51.540;5.854;2023-05-14T03:27:41;22.67;;;15.70;;
75035;SDS011;64247;51.540;5.854;2023-05-14T03:29:41;24.25;;;15.88;;
75035;SDS011;64247;51.540;5.854;2023-05-14T03:31:42;23.27;;;15.57;;
75035;SDS011;64247;51.540;5.854;2023-05-14T03:33:43;27.05;;;15.68;;
75035;SDS011;64247;51.540;5.854;2023-05-14T03:35:44;22.90;;;16.10;;
75035;SDS011;64247;51.540;5.854;2023-05-14T03:37:45;29.17;;;16.13;;
75035;SDS011;64247;51.540;5.854;2023-05-14T03:39:46;25.65;;;16.63;;
75035;SDS011;64247;51.540;5.854;2023-05-14T03:41:47;24.83;;;16.00;;
75035;SDS011;64247;51.540;5.854;2023-05-14T03:43:48;24.60;;;17.05;;
75035;SDS011;64247;51.540;5.854;2023-05-14T03:45:49;25.92;;;17.38;;
75035;SDS011;64247;51.540;5.854;2023-05-14T03:47:52;26.70;;;17.45;;
75035;SDS011;64247;51.540;5.854;2023-05-14T03:49:52;22.15;;;16.02;;
75035;SDS011;64247;51.540;5.854;2023-05-14T03:51:53;28.35;;;17.02;;
75035;SDS011;64247;51.540;5.854;2023-05-14T03:53:54;31.88;;;19.00;;
75035;SDS011;64247;51.540;5.854;2023-05-14T03:55:55;29.33;;;17.02;;
75035;SDS011;64247;51.540;5.854;2023-05-14T03:57:56;28.40;;;18.05;;
75035;SDS011;64247;51.540;5.854;2023-05-14T03:59:57;30.48;;;18.60;;
75035;SDS011;64247;51.540;5.854;2023-05-14T04:01:57;29.13;;;17.35;;
75035;SDS011;64247;51.540;5.854;2023-05-14T04:03:59;27.05;;;17.73;;
75035;SDS011;64247;51.540;5.854;2023-05-14T04:06:00;24.45;;;16.55;;
75035;SDS011;64247;51.540;5.854;2023-05-14T04:08:01;25.85;;;16.08;;
75035;SDS011;64247;51.540;5.854;2023-05-14T04:10:02;27.75;;;17.08;;
75035;SDS011;64247;51.540;5.854;2023-05-14T04:12:04;26.85;;;16.50;;
75035;SDS011;64247;51.540;5.854;2023-05-14T04:14:06;28.50;;;18.30;;
75035;SDS011;64247;51.540;5.854;2023-05-14T04:16:07;25.10;;;15.98;;
75035;SDS011;64247;51.540;5.854;2023-05-14T04:18:08;24.48;;;15.70;;
75035;SDS011;64247;51.540;5.854;2023-05-14T04:20:09;25.48;;;15.98;;
75035;SDS011;64247;51.540;5.854;2023-05-14T04:22:10;25.17;;;16.50;;
75035;SDS011;64247;51.540;5.854;2023-05-14T04:24:11;26.60;;;16.63;;
75035;SDS011;64247;51.540;5.854;2023-05-14T04:26:12;28.73;;;18.05;;
75035;SDS011;64247;51.540;5.854;2023-05-14T04:28:12;28.30;;;17.00;;
75035;SDS011;64247;51.540;5.854;2023-05-14T04:30:14;24.23;;;16.30;;
75035;SDS011;64247;51.540;5.854;2023-05-14T04:32:15;24.77;;;15.15;;
75035;SDS011;64247;51.540;5.854;2023-05-14T04:34:16;21.88;;;15.32;;
75035;SDS011;64247;51.540;5.854;2023-05-14T04:36:17;23.58;;;16.27;;
75035;SDS011;64247;51.540;5.854;2023-05-14T04:38:18;27.95;;;17.25;;
75035;SDS011;64247;51.540;5.854;2023-05-14T04:40:19;29.65;;;17.50;;
75035;SDS011;64247;51.540;5.854;2023-05-14T04:42:19;26.75;;;17.27;;
75035;SDS011;64247;51.540;5.854;2023-05-14T04:44:20;27.38;;;17.65;;
75035;SDS011;64247;51.540;5.854;2023-05-14T04:46:21;28.48;;;17.30;;
75035;SDS011;64247;51.540;5.854;2023-05-14T04:48:22;27.60;;;17.08;;
75035;SDS011;64247;51.540;5.854;2023-05-14T04:50:22;28.33;;;16.70;;
75035;SDS011;64247;51.540;5.854;2023-05-14T04:52:24;26.77;;;16.63;;
75035;SDS011;64247;51.540;5.854;2023-05-14T04:54:25;26.98;;;16.30;;
75035;SDS011;64247;51.540;5.854;2023-05-14T04:56:25;26.17;;;16.23;;
75035;SDS011;64247;51.540;5.854;2023-05-14T04:58:26;28.52;;;16.00;;
75035;SDS011;64247;51.540;5.854;2023-05-14T05:00:28;22.08;;;15.27;;
75035;SDS011;64247;51.540;5.854;2023-05-14T05:02:29;25.10;;;16.55;;
75035;SDS011;64247;51.540;5.854;2023-05-14T05:04:30;31.25;;;16.38;;
75035;SDS011;64247;51.540;5.854;2023-05-14T05:06:31;25.13;;;16.17;;
75035;SDS011;64247;51.540;5.854;2023-05-14T05:08:32;22.13;;;15.27;;
75035;SDS011;64247;51.540;5.854;2023-05-14T05:10:33;25.98;;;16.42;;
75035;SDS011;64247;51.540;5.854;2023-05-14T05:12:33;26.00;;;15.30;;
75035;SDS011;64247;51.540;5.854;2023-05-14T05:14:34;25.40;;;15.25;;
75035;SDS011;64247;51.540;5.854;2023-05-14T05:16:35;21.75;;;14.23;;
75035;SDS011;64247;51.540;5.854;2023-05-14T05:18:36;26.58;;;14.48;;
75035;SDS011;64247;51.540;5.854;2023-05-14T05:20:36;21.38;;;15.02;;
75035;SDS011;64247;51.540;5.854;2023-05-14T05:22:37;23.75;;;15.50;;
75035;SDS011;64247;51.540;5.854;2023-05-14T05:24:38;24.20;;;15.80;;
75035;SDS011;64247;51.540;5.854;2023-05-14T05:26:39;23.67;;;15.63;;
75035;SDS011;64247;51.540;5.854;2023-05-14T05:28:40;23.88;;;15.45;;
75035;SDS011;64247;51.540;5.854;2023-05-14T05:30:40;30.30;;;16.77;;
75035;SDS011;64247;51.540;5.854;2023-05-14T05:32:44;25.10;;;16.23;;
75035;SDS011;64247;51.540;5.854;2023-05-14T05:34:45;23.27;;;14.65;;
75035;SDS011;64247;51.540;5.854;2023-05-14T05:36:45;25.05;;;14.45;;
75035;SDS011;64247;51.540;5.854;2023-05-14T05:38:46;27.95;;;15.48;;
75035;SDS011;64247;51.540;5.854;2023-05-14T05:40:47;26.15;;;15.75;;
75035;SDS011;64247;51.540;5.854;2023-05-14T05:42:48;30.17;;;16.80;;
75035;SDS011;64247;51.540;5.854;2023-05-14T05:44:49;25.90;;;15.48;;
75035;SDS011;64247;51.540;5.854;2023-05-14T05:46:49;23.13;;;16.05;;
75035;SDS011;64247;51.540;5.854;2023-05-14T05:48:50;30.33;;;16.88;;
75035;SDS011;64247;51.540;5.854;2023-05-14T05:50:52;25.00;;;16.13;;
75035;SDS011;64247;51.540;5.854;2023-05-14T05:52:53;24.70;;;15.30;;
75035;SDS011;64247;51.540;5.854;2023-05-14T05:54:54;23.10;;;15.38;;
75035;SDS011;64247;51.540;5.854;2023-05-14T05:56:54;21.60;;;14.52;;
75035;SDS011;64247;51.540;5.854;2023-05-14T05:58:55;25.40;;;15.10;;
75035;SDS011;64247;51.540;5.854;2023-05-14T06:00:56;22.67;;;14.57;;
75035;SDS011;64247;51.540;5.854;2023-05-14T06:02:57;21.35;;;14.57;;
75035;SDS011;64247;51.540;5.854;2023-05-14T06:04:58;26.40;;;15.95;;
75035;SDS011;64247;51.540;5.854;2023-05-14T06:06:59;19.65;;;15.00;;
75035;SDS011;64247;51.540;5.854;2023-05-14T06:09:00;24.67;;;15.70;;
75035;SDS011;64247;51.540;5.854;2023-05-14T06:11:01;25.30;;;15.30;;
75035;SDS011;64247;51.540;5.854;2023-05-14T06:13:01;25.83;;;15.82;;
75035;SDS011;64247;51.540;5.854;2023-05-14T06:15:02;22.02;;;14.65;;
75035;SDS011;64247;51.540;5.854;2023-05-14T06:17:03;19.02;;;13.23;;
75035;SDS011;64247;51.540;5.854;2023-05-14T06:19:04;20.25;;;14.05;;
75035;SDS011;64247;51.540;5.854;2023-05-14T06:21:05;30.17;;;16.00;;
75035;SDS011;64247;51.540;5.854;2023-05-14T06:23:06;21.45;;;15.10;;
75035;SDS011;64247;51.540;5.854;2023-05-14T06:25:07;19.83;;;13.68;;
75035;SDS011;64247;51.540;5.854;2023-05-14T06:27:09;19.20;;;14.18;;
75035;SDS011;64247;51.540;5.854;2023-05-14T06:29:10;23.13;;;14.50;;
75035;SDS011;64247;51.540;5.854;2023-05-14T06:31:11;20.67;;;13.68;;
75035;SDS011;64247;51.540;5.854;2023-05-14T06:33:12;21.92;;;15.18;;
75035;SDS011;64247;51.540;5.854;2023-05-14T06:35:14;18.42;;;13.45;;
75035;SDS011;64247;51.540;5.854;2023-05-14T06:37:15;19.92;;;13.82;;
75035;SDS011;64247;51.540;5.854;2023-05-14T06:39:15;19.77;;;12.90;;
75035;SDS011;64247;51.540;5.854;2023-05-14T06:41:16;22.10;;;13.77;;
75035;SDS011;64247;51.540;5.854;2023-05-14T06:43:17;21.45;;;14.43;;
75035;SDS011;64247;51.540;5.854;2023-05-14T06:45:18;22.83;;;15.48;;
75035;SDS011;64247;51.540;5.854;2023-05-14T06:47:19;22.38;;;14.73;;
75035;SDS011;64247;51.540;5.854;2023-05-14T06:49:20;19.90;;;14.93;;
75035;SDS011;64247;51.540;5.854;2023-05-14T06:51:20;20.13;;;13.98;;
75035;SDS011;64247;51.540;5.854;2023-05-14T06:53:21;20.08;;;14.40;;
75035;SDS011;64247;51.540;5.854;2023-05-14T06:55:22;20.90;;;14.75;;
75035;SDS011;64247;51.540;5.854;2023-05-14T06:57:23;21.38;;;14.93;;
75035;SDS011;64247;51.540;5.854;2023-05-14T06:59:23;19.98;;;14.90;;
75035;SDS011;64247;51.540;5.854;2023-05-14T07:01:24;18.08;;;14.35;;
75035;SDS011;64247;51.540;5.854;2023-05-14T07:03:25;20.60;;;15.38;;
75035;SDS011;64247;51.540;5.854;2023-05-14T07:05:26;19.55;;;14.20;;
75035;SDS011;64247;51.540;5.854;2023-05-14T07:07:27;18.65;;;13.32;;
75035;SDS011;64247;51.540;5.854;2023-05-14T07:09:28;28.70;;;14.13;;
75035;SDS011;64247;51.540;5.854;2023-05-14T07:11:28;18.48;;;13.43;;
75035;SDS011;64247;51.540;5.854;2023-05-14T07:13:29;23.67;;;17.08;;
75035;SDS011;64247;51.540;5.854;2023-05-14T07:15:30;17.08;;;13.40;;
75035;SDS011;64247;51.540;5.854;2023-05-14T07:17:31;18.67;;;12.68;;
75035;SDS011;64247;51.540;5.854;2023-05-14T07:19:31;16.88;;;12.93;;
75035;SDS011;64247;51.540;5.854;2023-05-14T07:21:33;22.20;;;12.80;;
75035;SDS011;64247;51.540;5.854;2023-05-14T07:23:35;16.00;;;13.35;;
75035;SDS011;64247;51.540;5.854;2023-05-14T07:25:37;15.85;;;13.02;;
75035;SDS011;64247;51.540;5.854;2023-05-14T07:27:38;14.80;;;12.10;;
75035;SDS011;64247;51.540;5.854;2023-05-14T07:29:38;15.27;;;11.52;;
75035;SDS011;64247;51.540;5.854;2023-05-14T07:31:39;18.35;;;12.75;;
75035;SDS011;64247;51.540;5.854;2023-05-14T07:33:40;14.85;;;11.75;;
75035;SDS011;64247;51.540;5.854;2023-05-14T07:35:41;15.05;;;11.75;;
75035;SDS011;64247;51.540;5.854;2023-05-14T07:37:42;16.30;;;12.00;;
75035;SDS011;64247;51.540;5.854;2023-05-14T07:39:42;17.35;;;13.07;;
75035;SDS011;64247;51.540;5.854;2023-05-14T07:41:43;16.15;;;12.68;;
75035;SDS011;64247;51.540;5.854;2023-05-14T07:43:44;19.90;;;14.00;;
75035;SDS011;64247;51.540;5.854;2023-05-14T07:45:45;17.50;;;14.18;;
75035;SDS011;64247;51.540;5.854;2023-05-14T07:47:46;18.75;;;13.35;;
75035;SDS011;64247;51.540;5.854;2023-05-14T07:49:54;16.48;;;13.63;;
75035;SDS011;64247;51.540;5.854;2023-05-14T07:51:56;18.15;;;12.80;;
75035;SDS011;64247;51.540;5.854;2023-05-14T07:53:56;17.73;;;13.45;;
75035;SDS011;64247;51.540;5.854;2023-05-14T07:55:57;19.90;;;14.52;;
75035;SDS011;64247;51.540;5.854;2023-05-14T07:57:59;19.55;;;14.00;;
75035;SDS011;64247;51.540;5.854;2023-05-14T08:00:00;16.65;;;12.38;;
75035;SDS011;64247;51.540;5.854;2023-05-14T08:02:00;16.15;;;13.13;;
75035;SDS011;64247;51.540;5.854;2023-05-14T08:04:01;19.52;;;14.07;;
75035;SDS011;64247;51.540;5.854;2023-05-14T08:06:02;19.33;;;13.82;;
75035;SDS011;64247;51.540;5.854;2023-05-14T08:08:03;16.25;;;12.15;;
75035;SDS011;64247;51.540;5.854;2023-05-14T08:10:04;22.10;;;14.73;;
75035;SDS011;64247;51.540;5.854;2023-05-14T08:12:06;18.08;;;12.73;;
75035;SDS011;64247;51.540;5.854;2023-05-14T08:14:07;16.65;;;12.52;;
75035;SDS011;64247;51.540;5.854;2023-05-14T08:16:08;19.00;;;13.02;;
75035;SDS011;64247;51.540;5.854;2023-05-14T08:18:09;18.83;;;13.65;;
75035;SDS011;64247;51.540;5.854;2023-05-14T08:20:10;18.88;;;13.98;;
75035;SDS011;64247;51.540;5.854;2023-05-14T08:22:11;21.90;;;14.48;;
75035;SDS011;64247;51.540;5.854;2023-05-14T08:24:12;20.98;;;15.85;;
75035;SDS011;64247;51.540;5.854;2023-05-14T08:26:13;17.65;;;14.35;;
75035;SDS011;64247;51.540;5.854;2023-05-14T08:28:14;26.35;;;16.55;;
75035;SDS011;64247;51.540;5.854;2023-05-14T08:30:14;21.83;;;14.32;;
75035;SDS011;64247;51.540;5.854;2023-05-14T08:32:15;19.08;;;13.85;;
75035;SDS011;64247;51.540;5.854;2023-05-14T08:34:16;18.45;;;14.43;;
75035;SDS011;64247;51.540;5.854;2023-05-14T08:36:17;26.15;;;15.20;;
75035;SDS011;64247;51.540;5.854;2023-05-14T08:38:18;20.40;;;14.27;;
75035;SDS011;64247;51.540;5.854;2023-05-14T08:40:19;20.85;;;13.77;;
75035;SDS011;64247;51.540;5.854;2023-05-14T08:42:20;20.38;;;14.32;;
75035;SDS011;64247;51.540;5.854;2023-05-14T08:44:27;24.27;;;14.98;;
75035;SDS011;64247;51.540;5.854;2023-05-14T08:46:36;22.25;;;13.77;;
75035;SDS011;64247;51.540;5.854;2023-05-14T08:48:37;21.05;;;14.57;;
75035;SDS011;64247;51.540;5.854;2023-05-14T08:50:41;22.90;;;14.65;;
75035;SDS011;64247;51.540;5.854;2023-05-14T08:52:43;17.77;;;14.43;;
75035;SDS011;64247;51.540;5.854;2023-05-14T08:54:44;20.77;;;14.05;;
75035;SDS011;64247;51.540;5.854;2023-05-14T08:56:47;20.15;;;13.50;;
75035;SDS011;64247;51.540;5.854;2023-05-14T08:58:48;19.55;;;14.55;;
75035;SDS011;64247;51.540;5.854;2023-05-14T09:00:49;20.25;;;13.82;;
75035;SDS011;64247;51.540;5.854;2023-05-14T09:02:50;18.13;;;12.50;;
75035;SDS011;64247;51.540;5.854;2023-05-14T09:04:53;19.65;;;13.98;;
75035;SDS011;64247;51.540;5.854;2023-05-14T09:06:55;17.67;;;13.00;;
75035;SDS011;64247;51.540;5.854;2023-05-14T09:08:56;20.80;;;12.82;;
75035;SDS011;64247;51.540;5.854;2023-05-14T09:10:57;18.80;;;12.02;;
75035;SDS011;64247;51.540;5.854;2023-05-14T09:12:58;16.42;;;12.30;;
75035;SDS011;64247;51.540;5.854;2023-05-14T09:14:59;15.50;;;12.70;;
75035;SDS011;64247;51.540;5.854;2023-05-14T09:17:00;18.67;;;12.93;;
75035;SDS011;64247;51.540;5.854;2023-05-14T09:19:01;19.08;;;12.65;;
75035;SDS011;64247;51.540;5.854;2023-05-14T09:21:03;16.75;;;12.90;;
75035;SDS011;64247;51.540;5.854;2023-05-14T09:23:04;17.15;;;12.75;;
75035;SDS011;64247;51.540;5.854;2023-05-14T09:25:08;15.80;;;12.57;;
75035;SDS011;64247;51.540;5.854;2023-05-14T09:27:17;17.50;;;13.75;;
75035;SDS011;64247;51.540;5.854;2023-05-14T09:29:24;16.02;;;12.57;;
75035;SDS011;64247;51.540;5.854;2023-05-14T09:31:29;16.75;;;11.90;;
75035;SDS011;64247;51.540;5.854;2023-05-14T09:33:31;15.98;;;11.73;;
75035;SDS011;64247;51.540;5.854;2023-05-14T09:35:32;11.80;;;10.38;;
75035;SDS011;64247;51.540;5.854;2023-05-14T09:37:34;16.50;;;11.23;;
75035;SDS011;64247;51.540;5.854;2023-05-14T09:39:36;16.33;;;12.35;;
75035;SDS011;64247;51.540;5.854;2023-05-14T09:41:37;15.98;;;11.38;;
75035;SDS011;64247;51.540;5.854;2023-05-14T09:43:38;15.65;;;11.30;;
75035;SDS011;64247;51.540;5.854;2023-05-14T09:45:39;15.27;;;12.65;;
75035;SDS011;64247;51.540;5.854;2023-05-14T09:47:40;18.45;;;13.07;;
75035;SDS011;64247;51.540;5.854;2023-05-14T09:49:41;17.38;;;12.25;;
75035;SDS011;64247;51.540;5.854;2023-05-14T09:51:42;16.13;;;13.18;;
75035;SDS011;64247;51.540;5.854;2023-05-14T09:53:43;16.63;;;12.05;;
75035;SDS011;64247;51.540;5.854;2023-05-14T09:55:44;16.77;;;11.25;;
75035;SDS011;64247;51.540;5.854;2023-05-14T09:57:45;17.98;;;12.88;;
75035;SDS011;64247;51.540;5.854;2023-05-14T09:59:46;18.42;;;11.48;;
75035;SDS011;64247;51.540;5.854;2023-05-14T10:01:46;16.20;;;12.13;;
75035;SDS011;64247;51.540;5.854;2023-05-14T10:03:49;15.00;;;11.88;;
75035;SDS011;64247;51.540;5.854;2023-05-14T10:05:50;14.48;;;11.55;;
75035;SDS011;64247;51.540;5.854;2023-05-14T10:07:53;15.73;;;12.63;;
75035;SDS011;64247;51.540;5.854;2023-05-14T10:09:58;19.05;;;12.73;;
75035;SDS011;64247;51.540;5.854;2023-05-14T10:12:02;16.30;;;13.15;;
75035;SDS011;64247;51.540;5.854;2023-05-14T10:14:07;16.15;;;12.43;;
75035;SDS011;64247;51.540;5.854;2023-05-14T10:16:21;13.95;;;11.70;;
75035;SDS011;64247;51.540;5.854;2023-05-14T10:18:35;19.02;;;12.98;;
75035;SDS011;64247;51.540;5.854;2023-05-14T10:20:47;15.90;;;11.70;;
75035;SDS011;64247;51.540;5.854;2023-05-14T10:22:57;15.63;;;11.50;;
75035;SDS011;64247;51.540;5.854;2023-05-14T10:24:58;16.25;;;11.45;;
75035;SDS011;64247;51.540;5.854;2023-05-14T10:26:59;13.85;;;10.90;;
75035;SDS011;64247;51.540;5.854;2023-05-14T10:29:00;18.02;;;10.75;;
75035;SDS011;64247;51.540;5.854;2023-05-14T10:31:01;13.80;;;10.45;;
75035;SDS011;64247;51.540;5.854;2023-05-14T10:33:10;17.60;;;11.75;;
75035;SDS011;64247;51.540;5.854;2023-05-14T10:35:16;14.93;;;10.70;;
75035;SDS011;64247;51.540;5.854;2023-05-14T10:37:20;14.43;;;11.15;;
75035;SDS011;64247;51.540;5.854;2023-05-14T10:39:22;14.27;;;9.63;;
75035;SDS011;64247;51.540;5.854;2023-05-14T10:41:38;14.48;;;11.05;;
75035;SDS011;64247;51.540;5.854;2023-05-14T10:43:40;10.85;;;9.35;;
75035;SDS011;64247;51.540;5.854;2023-05-14T10:45:42;10.98;;;9.90;;
75035;SDS011;64247;51.540;5.854;2023-05-14T10:47:44;12.20;;;9.82;;
75035;SDS011;64247;51.540;5.854;2023-05-14T10:49:46;13.57;;;10.93;;
75035;SDS011;64247;51.540;5.854;2023-05-14T10:51:48;13.30;;;10.85;;
75035;SDS011;64247;51.540;5.854;2023-05-14T10:53:52;17.00;;;10.60;;
75035;SDS011;64247;51.540;5.854;2023-05-14T10:55:53;14.35;;;10.73;;
75035;SDS011;64247;51.540;5.854;2023-05-14T10:57:57;10.25;;;8.45;;
75035;SDS011;64247;51.540;5.854;2023-05-14T10:59:59;11.80;;;8.93;;
75035;SDS011;64247;51.540;5.854;2023-05-14T11:02:03;11.07;;;8.55;;
75035;SDS011;64247;51.540;5.854;2023-05-14T11:04:04;10.25;;;8.90;;
75035;SDS011;64247;51.540;5.854;2023-05-14T11:06:05;9.75;;;8.75;;
75035;SDS011;64247;51.540;5.854;2023-05-14T11:08:07;10.98;;;8.93;;
75035;SDS011;64247;51.540;5.854;2023-05-14T11:10:09;11.38;;;7.88;;
75035;SDS011;64247;51.540;5.854;2023-05-14T11:12:34;11.75;;;9.32;;
75035;SDS011;64247;51.540;5.854;2023-05-14T11:14:36;11.77;;;9.65;;
75035;SDS011;64247;51.540;5.854;2023-05-14T11:16:37;11.48;;;10.05;;
75035;SDS011;64247;51.540;5.854;2023-05-14T11:18:40;14.90;;;10.10;;
75035;SDS011;64247;51.540;5.854;2023-05-14T11:20:41;10.95;;;8.88;;
75035;SDS011;64247;51.540;5.854;2023-05-14T11:22:42;13.23;;;10.23;;
75035;SDS011;64247;51.540;5.854;2023-05-14T11:24:44;11.13;;;9.75;;
75035;SDS011;64247;51.540;5.854;2023-05-14T11:26:45;12.38;;;9.30;;
75035;SDS011;64247;51.540;5.854;2023-05-14T11:28:45;11.88;;;9.27;;
75035;SDS011;64247;51.540;5.854;2023-05-14T11:30:47;11.20;;;9.25;;
75035;SDS011;64247;51.540;5.854;2023-05-14T11:32:51;10.13;;;8.93;;
75035;SDS011;64247;51.540;5.854;2023-05-14T11:34:53;9.90;;;8.68;;
75035;SDS011;64247;51.540;5.854;2023-05-14T11:36:54;12.02;;;8.50;;
75035;SDS011;64247;51.540;5.854;2023-05-14T11:38:54;13.73;;;9.45;;
75035;SDS011;64247;51.540;5.854;2023-05-14T11:40:56;11.30;;;8.18;;
75035;SDS011;64247;51.540;5.854;2023-05-14T11:42:58;9.45;;;7.15;;
75035;SDS011;64247;51.540;5.854;2023-05-14T11:44:59;8.50;;;7.05;;
75035;SDS011;64247;51.540;5.854;2023-05-14T11:47:00;8.43;;;7.13;;
75035;SDS011;64247;51.540;5.854;2023-05-14T11:49:04;8.02;;;6.50;;
75035;SDS011;64247;51.540;5.854;2023-05-14T11:51:06;9.27;;;6.90;;
75035;SDS011;64247;51.540;5.854;2023-05-14T11:53:06;8.30;;;7.30;;
75035;SDS011;64247;51.540;5.854;2023-05-14T11:55:13;7.20;;;6.50;;
75035;SDS011;64247;51.540;5.854;2023-05-14T11:57:17;10.90;;;6.80;;
75035;SDS011;64247;51.540;5.854;2023-05-14T11:59:20;5.53;;;4.85;;
75035;SDS011;64247;51.540;5.854;2023-05-14T12:01:23;7.63;;;4.68;;
75035;SDS011;64247;51.540;5.854;2023-05-14T12:03:24;5.90;;;5.30;;